Time;durP1;ratioP1;P1;durP2;ratioP2;P2;SDS_P1;SDS_P2;PMS_P1;PMS_P2;Temp;Humidity;BMP_temperature;BMP_pressure;BME280_temperature;BME280_humidity;BME280_pressure;Samples;Min_cycle;Max_cycle;Signal;HPM_P1;HPM_P2
2023/01/04 00:01:27;;;;;;;;;;;;;;;;;;5055146;28;1113;-76
2023/01/04 00:03:53;;;;;;;;;;;;;;;;;;5057259;28;1326;-76
2023/01/04 00:06:20;;;;;;;;;;;;;;;;;;5054930;28;1244;-77
2023/01/04 00:08:46;;;;;;;;;;;;;;;;;;5053449;28;1198;-76
2023/01/04 00:11:13;;;;;;;;;;;;;;;;;;5056196;28;714;-76
2023/01/04 00:13:41;;;;;;;;;;;;;;;;;;5067043;28;2064;-77
2023/01/04 00:16:08;;;;;;;;;;;;;;;;;;5055931;28;1073;-78
2023/01/04 00:18:34;;;;;;;;;;;;;;;;;;5072960;28;1455;-78
2023/01/04 00:21:06;;;;;;;;;;;;;;;;;;5074963;28;880;-78
2023/01/04 00:23:32;;;;;;;;;;;;;;;;;;5077521;28;1352;-78
2023/01/04 00:25:58;;;;;;;;;;;;;;;;;;5078754;28;900;-77
2023/01/04 00:28:24;;;;;;;;;;;;;;;;;;5076513;28;1106;-77
2023/01/04 00:30:52;;;;;;;;;;;;;;;;;;5074017;28;1043;-77
2023/01/04 00:33:18;;;;;;;;;;;;;;;;;;5071519;28;1983;-77
2023/01/04 00:35:45;;;;;;;;;;;;;;;;;;5072111;28;1127;-75
2023/01/04 00:38:11;;;;;;;;;;;;;;;;;;5070025;28;1191;-76
2023/01/04 00:40:37;;;;;;;;;;;;;;;;;;5073302;28;815;-75
2023/01/04 00:43:03;;;;;;;;;;;;;;;;;;5071988;28;1284;-74
2023/01/04 00:45:29;;;;;;;;;;;;;;;;;;5073324;28;1067;-75
2023/01/04 00:47:57;;;;;;;;;;;;;;;;;;5073225;28;1035;-76
2023/01/04 00:50:23;;;;;;;;;;;;;;;;;;5073179;28;1043;-75
2023/01/04 00:52:49;;;;;;;;;;;;;;;;;;5072122;28;1909;-75
2023/01/04 00:55:16;;;;;;;;;;;;;;;;;;5088709;28;1188;-76
2023/01/04 00:57:42;;;;;;;;;;;;;;;;;;5071685;28;1518;-77
2023/01/04 01:00:09;;;;;;;;;;;;;;;;;;5071376;28;1223;-76
2023/01/04 01:02:35;;;;;;;;;;;;;;;;;;5071977;28;1335;-76
2023/01/04 01:05:02;;;;;;;;;;;;;;;;;;5072714;28;1106;-76
2023/01/04 01:07:29;;;;;;;;;;;;;;;;;;5073029;28;1068;-77
2023/01/04 01:09:55;;;;;;;;;;;;;;;;;;5071477;28;1305;-75
2023/01/04 01:12:21;;;;;;;;;;;;;;;;;;5071211;28;1902;-76
2023/01/04 01:14:47;;;;;;;;;;;;;;;;;;5072685;28;1170;-76
2023/01/04 01:17:13;;;;;;;;;;;;;;;;;;5072739;28;920;-75
2023/01/04 01:19:39;;;;;;;;;;;;;;;;;;5072559;28;1043;-77
2023/01/04 01:22:07;;;;;;;;;;;;;;;;;;5072079;28;1298;-77
2023/01/04 01:24:33;;;;;;;;;;;;;;;;;;5073194;28;758;-76
2023/01/04 01:26:59;;;;;;;;;;;;;;;;;;5071257;28;1359;-76
2023/01/04 01:29:25;;;;;;;;;;;;;;;;;;5072638;28;1048;-76
2023/01/04 01:31:52;;;;;;;;;;;;;;;;;;5071272;28;1285;-76
2023/01/04 01:34:18;;;;;;;;;;;;;;;;;;5072233;28;1965;-77
2023/01/04 01:36:44;;;;;;;;;;;;;;;;;;5071265;28;1150;-77
2023/01/04 01:39:12;;;;;;;;;;;;;;;;;;5072199;28;1052;-76
2023/01/04 01:41:38;;;;;;;;;;;;;;;;;;5071549;28;1310;-77
2023/01/04 01:44:05;;;;;;;;;;;;;;;;;;5072226;28;1123;-77
2023/01/04 01:46:33;;;;;;;;;;;;;;;;;;5071335;28;1226;-77
2023/01/04 01:49:00;;;;;;;;;;;;;;;;;;5070932;28;1080;-76
2023/01/04 01:51:27;;;;;;;;;;;;;;;;;;5071636;28;1051;-77
2023/01/04 01:53:54;;;;;;;;;;;;;;;;;;5072274;28;2026;-75
2023/01/04 01:56:22;;;;;;;;;;;;;;;;;;5071200;28;1205;-76
2023/01/04 01:58:50;;;;;;;;;;;;;;;;;;5071969;28;1060;-76
2023/01/04 02:01:16;;;;;;;;;;;;;;;;;;5070122;28;1192;-74
2023/01/04 02:03:43;;;;;;;;;;;;;;;;;;5070581;28;1373;-77
2023/01/04 02:06:10;;;;;;;;;;;;;;;;;;5071961;28;1107;-77
2023/01/04 02:08:36;;;;;;;;;;;;;;;;;;5070999;28;1151;-76
2023/01/04 02:11:02;;;;;;;;;;;;;;;;;;5072015;28;1051;-76
2023/01/04 02:14:25;;;;;;;;;;;;;;;;;;5071193;28;1914;-77
2023/01/04 02:16:19;;;;;;;;;;;;;;;;;;5071541;28;1478;-77
2023/01/04 02:18:46;;;;;;;;;;;;;;;;;;5071857;28;799;-77
2023/01/04 02:21:13;;;;;;;;;;;;;;;;;;5071910;28;1043;-75
2023/01/04 02:23:48;;;;;;;;;;;;;;;;;;5070087;28;1314;-76
2023/01/04 02:26:19;;;;;;;;;;;;;;;;;;5060165;28;2035;-75
2023/01/04 02:28:52;;;;;;;;;;;;;;;;;;5050579;28;1160;-77
2023/01/04 02:31:22;;;;;;;;;;;;;;;;;;5062625;28;1449;-75
2023/01/04 02:33:49;;;;;;;;;;;;;;;;;;5070130;28;1883;-76
2023/01/04 02:36:17;;;;;;;;;;;;;;;;;;5071802;28;1106;-77
2023/01/04 02:38:47;;;;;;;;;;;;;;;;;;5070717;28;1179;-77
2023/01/04 02:41:14;;;;;;;;;;;;;;;;;;5072076;28;1115;-76
2023/01/04 02:46:27;;;;;;;;;;;;;;;;;;5075730;28;956;-77
2023/01/04 02:51:37;;;;;;;;;;;;;;;;;;5090153;28;1311;-75
2023/01/04 02:54:04;;;;;;;;;;;;;;;;;;5075377;28;1903;-77
2023/01/04 02:56:37;;;;;;;;;;;;;;;;;;5074138;28;1088;-77
2023/01/04 02:59:05;;;;;;;;;;;;;;;;;;5075414;28;803;-76
2023/01/04 03:07:09;;;;;;;;;;;;;;;;;;5090793;28;1158;-77
2023/01/04 03:09:35;;;;;;;;;;;;;;;;;;5074790;28;1071;-77
2023/01/04 03:14:47;;;;;;;;;;;;;;;;;;5091826;28;1914;-77
2023/01/04 03:17:15;;;;;;;;;;;;;;;;;;5063942;28;2011;-77
2023/01/04 03:19:54;;;;;;;;;;;;;;;;;;5056396;28;1124;-77
2023/01/04 03:36:03;;;;;;;;;;;;;;;;;;5054443;28;847;-77
2023/01/04 03:49:32;;;;;;;;;;;;;;;;;;5073176;28;1243;-75
2023/01/04 03:51:59;;;;;;;;;;;;;;;;;;5071832;28;1289;-75
2023/01/04 03:54:28;;;;;;;;;;;;;;;;;;5073458;28;1969;-75
2023/01/04 03:56:54;;;;;;;;;;;;;;;;;;5074187;28;952;-75
2023/01/04 03:59:22;;;;;;;;;;;;;;;;;;5074405;28;718;-75
2023/01/04 04:01:48;;;;;;;;;;;;;;;;;;5073513;28;1282;-75
2023/01/04 04:09:43;;;;;;;;;;;;;;;;;;5072758;28;1335;-75
2023/01/04 04:12:09;;;;;;;;;;;;;;;;;;5073810;28;1308;-75
2023/01/04 04:14:35;;;;;;;;;;;;;;;;;;5074184;28;1971;-75
2023/01/04 04:17:02;;;;;;;;;;;;;;;;;;5073554;28;1451;-75
2023/01/04 04:19:28;;;;;;;;;;;;;;;;;;5089909;28;1210;-75
2023/01/04 04:21:54;;;;;;;;;;;;;;;;;;5073032;28;1269;-75
2023/01/04 04:24:23;;;;;;;;;;;;;;;;;;5074020;28;1096;-75
2023/01/04 04:26:49;;;;;;;;;;;;;;;;;;5072467;28;1088;-75
2023/01/04 04:29:15;;;;;;;;;;;;;;;;;;5074021;28;1051;-75
2023/01/04 04:31:41;;;;;;;;;;;;;;;;;;5071653;28;1385;-75
2023/01/04 04:34:09;;;;;;;;;;;;;;;;;;5072038;28;1910;-75
2023/01/04 04:36:35;;;;;;;;;;;;;;;;;;5072195;28;1162;-76
2023/01/04 04:39:01;;;;;;;;;;;;;;;;;;5073717;28;1056;-75
2023/01/04 04:41:37;;;;;;;;;;;;;;;;;;5073572;28;929;-75
2023/01/04 04:44:03;;;;;;;;;;;;;;;;;;5075125;28;1068;-75
2023/01/04 04:46:29;;;;;;;;;;;;;;;;;;5075495;28;1052;-75
2023/01/04 04:48:55;;;;;;;;;;;;;;;;;;5074296;28;850;-76
2023/01/04 04:51:22;;;;;;;;;;;;;;;;;;5070818;28;1036;-75
2023/01/04 04:53:48;;;;;;;;;;;;;;;;;;5072841;28;1977;-75
2023/01/04 04:56:14;;;;;;;;;;;;;;;;;;5073511;28;1056;-75
2023/01/04 04:58:42;;;;;;;;;;;;;;;;;;5071470;28;1279;-75
2023/01/04 05:01:08;;;;;;;;;;;;;;;;;;5071948;28;1111;-75
2023/01/04 05:03:34;;;;;;;;;;;;;;;;;;5072260;28;1322;-75
2023/01/04 05:06:01;;;;;;;;;;;;;;;;;;5072089;28;945;-75
2023/01/04 05:08:27;;;;;;;;;;;;;;;;;;5072851;28;1031;-75
2023/01/04 05:10:53;;;;;;;;;;;;;;;;;;5071403;28;1185;-75
2023/01/04 05:13:18;;;;;;;;;;;;;;;;;;5072036;28;1906;-75
2023/01/04 05:15:46;;;;;;;;;;;;;;;;;;5071388;28;1154;-74
2023/01/04 05:18:13;;;;;;;;;;;;;;;;;;5071327;28;1249;-75
2023/01/04 05:20:40;;;;;;;;;;;;;;;;;;5071325;28;1305;-75
2023/01/04 05:23:06;;;;;;;;;;;;;;;;;;5073485;22;4059;-71
2023/01/04 05:25:32;;;;;;;;;;;;;;;;;;5050840;28;1187;-71
2023/01/04 05:27:58;;;;;;;;;;;;;;;;;;5051430;28;1187;-71
2023/01/04 05:33:10;;;;;;;;;;;;;;;;;;5050445;28;1993;-71
2023/01/04 05:35:36;;;;;;;;;;;;;;;;;;5052513;28;913;-71
2023/01/04 05:38:02;;;;;;;;;;;;;;;;;;5052482;28;1067;-71
2023/01/04 05:40:28;;;;;;;;;;;;;;;;;;5068499;28;1238;-71
2023/01/04 05:42:54;;;;;;;;;;;;;;;;;;5051734;28;1323;-72
2023/01/04 05:45:21;;;;;;;;;;;;;;;;;;5052203;28;1063;-72
2023/01/04 05:47:48;;;;;;;;;;;;;;;;;;5067840;28;1208;-73
2023/01/04 05:50:15;;;;;;;;;;;;;;;;;;5052408;28;1055;-71
2023/01/04 05:52:42;;;;;;;;;;;;;;;;;;5042009;28;1416;-71
2023/01/04 05:55:08;;;;;;;;;;;;;;;;;;5037409;28;1906;-72
2023/01/04 05:57:35;;;;;;;;;;;;;;;;;;4982261;28;1294;-72
2023/01/04 06:00:02;;;;;;;;;;;;;;;;;;4978874;28;2111;-72
2023/01/04 06:02:38;;;;;;;;;;;;;;;;;;4980084;28;1471;-72
2023/01/04 06:05:05;;;;;;;;;;;;;;;;;;4974590;28;1466;-71
2023/01/04 06:07:33;;;;;;;;;;;;;;;;;;4972472;28;1047;-72
2023/01/04 06:09:59;;;;;;;;;;;;;;;;;;4968531;28;1573;-72
2023/01/04 06:12:26;;;;;;;;;;;;;;;;;;4989953;28;1423;-72
2023/01/04 06:14:52;;;;;;;;;;;;;;;;;;4984827;28;1930;-73
2023/01/04 06:17:19;;;;;;;;;;;;;;;;;;4999473;28;1411;-72
2023/01/04 06:19:45;;;;;;;;;;;;;;;;;;5031542;28;1328;-73
2023/01/04 06:22:11;;;;;;;;;;;;;;;;;;5032353;28;1267;-71
2023/01/04 06:24:39;;;;;;;;;;;;;;;;;;5066019;28;1413;-71
2023/01/04 06:27:05;;;;;;;;;;;;;;;;;;5075849;28;1051;-71
2023/01/04 06:29:31;;;;;;;;;;;;;;;;;;5051817;28;1399;-71
2023/01/04 06:31:57;;;;;;;;;;;;;;;;;;5056264;28;1169;-71
2023/01/04 06:34:24;;;;;;;;;;;;;;;;;;5061580;28;1981;-71
2023/01/04 06:36:50;;;;;;;;;;;;;;;;;;5065961;28;1395;-72
2023/01/04 06:39:16;;;;;;;;;;;;;;;;;;5066446;28;1473;-72
2023/01/04 06:41:43;;;;;;;;;;;;;;;;;;5065059;28;1135;-71
2023/01/04 06:44:10;;;;;;;;;;;;;;;;;;5039290;28;1481;-72
2023/01/04 06:46:36;;;;;;;;;;;;;;;;;;5074428;28;1064;-73
2023/01/04 06:49:02;;;;;;;;;;;;;;;;;;5056291;28;1078;-73
2023/01/04 06:51:28;;;;;;;;;;;;;;;;;;5062063;28;1418;-72
2023/01/04 06:53:55;;;;;;;;;;;;;;;;;;5053481;28;1975;-74
2023/01/04 06:56:21;;;;;;;;;;;;;;;;;;5037464;28;1112;-73
2023/01/04 06:58:48;;;;;;;;;;;;;;;;;;5064263;28;1456;-73
2023/01/04 07:01:15;;;;;;;;;;;;;;;;;;5059264;28;1197;-72
2023/01/04 07:03:41;;;;;;;;;;;;;;;;;;5055801;28;1404;-73
2023/01/04 07:06:07;;;;;;;;;;;;;;;;;;5068225;28;1348;-73
2023/01/04 07:08:34;;;;;;;;;;;;;;;;;;5037202;28;1120;-73
2023/01/04 07:11:00;;;;;;;;;;;;;;;;;;5060408;28;1470;-73
2023/01/04 07:13:26;;;;;;;;;;;;;;;;;;5062487;28;1409;-73
2023/01/04 07:15:57;;;;;;;;;;;;;;;;;;5056058;28;1973;-73
2023/01/04 07:18:23;;;;;;;;;;;;;;;;;;5054791;28;1023;-73
2023/01/04 07:20:49;;;;;;;;;;;;;;;;;;5054958;28;1176;-73
2023/01/04 07:23:15;;;;;;;;;;;;;;;;;;5061996;28;1375;-73
2023/01/04 07:25:42;;;;;;;;;;;;;;;;;;5049380;28;1502;-73
2023/01/04 07:28:08;;;;;;;;;;;;;;;;;;5056721;28;1161;-73
2023/01/04 07:30:34;;;;;;;;;;;;;;;;;;5072482;28;1632;-73
2023/01/04 07:33:02;;;;;;;;;;;;;;;;;;5064292;28;1512;-73
2023/01/04 07:35:28;;;;;;;;;;;;;;;;;;5053707;28;1985;-73
2023/01/04 07:37:54;;;;;;;;;;;;;;;;;;5074533;28;870;-73
2023/01/04 07:40:21;;;;;;;;;;;;;;;;;;5074469;28;751;-73
2023/01/04 07:42:53;;;;;;;;;;;;;;;;;;5054696;28;1404;-73
2023/01/04 07:45:19;;;;;;;;;;;;;;;;;;5065769;28;1437;-73
2023/01/04 07:47:45;;;;;;;;;;;;;;;;;;5063652;28;1652;-73
2023/01/04 07:50:13;;;;;;;;;;;;;;;;;;5053272;28;1451;-73
2023/01/04 07:52:39;;;;;;;;;;;;;;;;;;5053097;28;1388;-73
2023/01/04 07:55:06;;;;;;;;;;;;;;;;;;5070787;28;1907;-73
2023/01/04 07:57:32;;;;;;;;;;;;;;;;;;5048481;28;1648;-73
2023/01/04 07:59:58;;;;;;;;;;;;;;;;;;5063645;28;1363;-74
2023/01/04 08:02:24;;;;;;;;;;;;;;;;;;5046982;28;1406;-73
2023/01/04 08:04:50;;;;;;;;;;;;;;;;;;5061532;28;1433;-72
2023/01/04 08:07:18;;;;;;;;;;;;;;;;;;5060326;28;1358;-72
2023/01/04 08:09:44;;;;;;;;;;;;;;;;;;5058781;28;1121;-73
2023/01/04 08:12:10;;;;;;;;;;;;;;;;;;5057416;28;1381;-72
2023/01/04 08:14:36;;;;;;;;;;;;;;;;;;5058766;28;1918;-73
2023/01/04 08:17:03;;;;;;;;;;;;;;;;;;5067157;28;1332;-73
2023/01/04 08:19:29;;;;;;;;;;;;;;;;;;5067552;28;1551;-73
2023/01/04 08:21:55;;;;;;;;;;;;;;;;;;5071765;28;1474;-73
2023/01/04 08:24:23;;;;;;;;;;;;;;;;;;5048280;28;1537;-72
2023/01/04 08:26:49;;;;;;;;;;;;;;;;;;5060657;28;1254;-73
2023/01/04 08:29:15;;;;;;;;;;;;;;;;;;5068187;28;1578;-75
2023/01/04 08:31:41;;;;;;;;;;;;;;;;;;5072114;28;1162;-73
2023/01/04 08:34:08;;;;;;;;;;;;;;;;;;5065978;28;1961;-73
2023/01/04 08:36:35;;;;;;;;;;;;;;;;;;5065131;28;1404;-72
2023/01/04 08:39:02;;;;;;;;;;;;;;;;;;5063838;28;1181;-73
2023/01/04 08:41:29;;;;;;;;;;;;;;;;;;5052292;28;849;-74
2023/01/04 08:43:57;;;;;;;;;;;;;;;;;;5052875;28;1388;-73
2023/01/04 08:46:23;;;;;;;;;;;;;;;;;;5046315;28;1564;-73
2023/01/04 08:48:50;;;;;;;;;;;;;;;;;;5065542;28;1126;-73
2023/01/04 08:51:16;;;;;;;;;;;;;;;;;;5060222;28;1123;-74
2023/01/04 08:53:43;;;;;;;;;;;;;;;;;;5073089;28;1298;-73
2023/01/04 08:56:09;;;;;;;;;;;;;;;;;;5054831;28;1918;-74
2023/01/04 08:58:37;;;;;;;;;;;;;;;;;;5072692;28;969;-74
2023/01/04 09:01:04;;;;;;;;;;;;;;;;;;5066898;28;1424;-74
2023/01/04 09:03:30;;;;;;;;;;;;;;;;;;5062275;28;1398;-74
2023/01/04 09:06:01;;;;;;;;;;;;;;;;;;5042853;28;1395;-73
2023/01/04 09:08:27;;;;;;;;;;;;;;;;;;5060326;28;1189;-74
2023/01/04 09:10:54;;;;;;;;;;;;;;;;;;5052886;28;1084;-73
2023/01/04 09:13:20;;;;;;;;;;;;;;;;;;5034814;28;1414;-74
2023/01/04 09:15:47;;;;;;;;;;;;;;;;;;5067130;28;1982;-75
2023/01/04 09:18:14;;;;;;;;;;;;;;;;;;5050817;28;1289;-74
2023/01/04 09:20:40;;;;;;;;;;;;;;;;;;5035032;28;1309;-74
2023/01/04 09:23:06;;;;;;;;;;;;;;;;;;5033796;28;1508;-74
2023/01/04 09:25:32;;;;;;;;;;;;;;;;;;5044234;28;1391;-75
2023/01/04 09:27:58;;;;;;;;;;;;;;;;;;5055153;28;1239;-74
2023/01/04 09:30:25;;;;;;;;;;;;;;;;;;5042207;28;1474;-75
2023/01/04 09:32:52;;;;;;;;;;;;;;;;;;5053384;28;1384;-74
2023/01/04 09:35:19;;;;;;;;;;;;;;;;;;5054455;28;1961;-74
2023/01/04 09:37:45;;;;;;;;;;;;;;;;;;5046551;28;1440;-75
2023/01/04 09:40:13;;;;;;;;;;;;;;;;;;5066150;28;1385;-75
2023/01/04 09:42:40;;;;;;;;;;;;;;;;;;5059978;28;1391;-76
2023/01/04 09:45:09;;;;;;;;;;;;;;;;;;5052953;28;1125;-76
2023/01/04 09:47:37;;;;;;;;;;;;;;;;;;5052402;28;1445;-77
2023/01/04 09:50:05;;;;;;;;;;;;;;;;;;5034449;28;1209;-77
2023/01/04 09:52:37;;;;;;;;;;;;;;;;;;5062242;28;1437;-77
2023/01/04 09:55:03;;;;;;;;;;;;;;;;;;5065733;28;1979;-76
2023/01/04 09:57:30;;;;;;;;;;;;;;;;;;5057065;28;1397;-77
2023/01/04 09:59:57;;;;;;;;;;;;;;;;;;5067121;28;1459;-75
2023/01/04 10:02:24;;;;;;;;;;;;;;;;;;5053139;28;1080;-75
2023/01/04 10:04:50;;;;;;;;;;;;;;;;;;5051975;28;1087;-75
2023/01/04 10:07:27;;;;;;;;;;;;;;;;;;5051847;28;1067;-77
2023/01/04 10:09:53;;;;;;;;;;;;;;;;;;5059773;28;1446;-76
2023/01/04 10:12:23;;;;;;;;;;;;;;;;;;5040988;28;1271;-75
2023/01/04 10:14:52;;;;;;;;;;;;;;;;;;5058660;28;1910;-74
2023/01/04 10:17:23;;;;;;;;;;;;;;;;;;5071765;28;1015;-76
2023/01/04 10:19:52;;;;;;;;;;;;;;;;;;5045939;28;1605;-77
2023/01/04 10:22:22;;;;;;;;;;;;;;;;;;5059554;28;1274;-75
2023/01/04 10:24:50;;;;;;;;;;;;;;;;;;5033923;28;1307;-74
2023/01/04 10:27:18;;;;;;;;;;;;;;;;;;5063043;28;1255;-73
2023/01/04 10:29:51;;;;;;;;;;;;;;;;;;5044173;28;1434;-76
2023/01/04 10:32:19;;;;;;;;;;;;;;;;;;5063911;28;1165;-75
2023/01/04 10:34:46;;;;;;;;;;;;;;;;;;5069963;28;1477;-76
2023/01/04 10:37:13;;;;;;;;;;;;;;;;;;5061184;28;1417;-75
2023/01/04 10:39:41;;;;;;;;;;;;;;;;;;5061083;28;1582;-74
2023/01/04 10:42:10;;;;;;;;;;;;;;;;;;5066987;28;1433;-76
2023/01/04 10:44:37;;;;;;;;;;;;;;;;;;5059861;28;1363;-74
2023/01/04 10:47:05;;;;;;;;;;;;;;;;;;5065072;28;1834;-77
2023/01/04 10:49:34;;;;;;;;;;;;;;;;;;5051190;28;1236;-73
2023/01/04 10:52:01;;;;;;;;;;;;;;;;;;5060997;28;1642;-76
2023/01/04 10:54:28;;;;;;;;;;;;;;;;;;5050933;28;1395;-75
2023/01/04 10:56:57;;;;;;;;;;;;;;;;;;5051795;28;1911;-77
2023/01/04 10:59:25;;;;;;;;;;;;;;;;;;5064570;28;1644;-75
2023/01/04 11:01:52;;;;;;;;;;;;;;;;;;5032785;28;1505;-74
2023/01/04 11:04:19;;;;;;;;;;;;;;;;;;5068368;28;1496;-73
2023/01/04 11:06:46;;;;;;;;;;;;;;;;;;5041058;28;1180;-74
2023/01/04 11:09:14;;;;;;;;;;;;;;;;;;5054072;28;1072;-74
2023/01/04 11:11:40;;;;;;;;;;;;;;;;;;5066616;28;1443;-75
2023/01/04 11:14:09;;;;;;;;;;;;;;;;;;5074696;28;1323;-74
2023/01/04 11:16:35;;;;;;;;;;;;;;;;;;5075262;28;1968;-74
2023/01/04 11:19:03;;;;;;;;;;;;;;;;;;5065165;28;1423;-75
2023/01/04 11:21:31;;;;;;;;;;;;;;;;;;5067312;28;1174;-75
2023/01/04 11:23:57;;;;;;;;;;;;;;;;;;5054660;28;1234;-76
2023/01/04 11:26:26;;;;;;;;;;;;;;;;;;5085634;22;3520;-73
2023/01/04 11:28:53;;;;;;;;;;;;;;;;;;5069880;28;1966;-74
2023/01/04 11:31:24;;;;;;;;;;;;;;;;;;5067723;28;1823;-73
2023/01/04 11:33:51;;;;;;;;;;;;;;;;;;5054246;28;1830;-72
2023/01/04 11:36:31;;;;;;;;;;;;;;;;;;5058903;28;1910;-73
2023/01/04 11:38:57;;;;;;;;;;;;;;;;;;5075189;28;1602;-71
2023/01/04 11:41:24;;;;;;;;;;;;;;;;;;5073242;28;1467;-73
2023/01/04 11:43:56;;;;;;;;;;;;;;;;;;5073849;28;1592;-72
2023/01/04 11:46:24;;;;;;;;;;;;;;;;;;5084947;28;1628;-73
2023/01/04 11:48:51;;;;;;;;;;;;;;;;;;5054257;28;1116;-75
2023/01/04 11:51:20;;;;;;;;;;;;;;;;;;5065347;28;1435;-74
2023/01/04 11:53:56;;;;;;;;;;;;;;;;;;5072873;28;1144;-75
2023/01/04 11:56:22;;;;;;;;;;;;;;;;;;5072875;28;1918;-75
2023/01/04 11:59:02;;;;;;;;;;;;;;;;;;5055867;28;1962;-73
2023/01/04 12:01:30;;;;;;;;;;;;;;;;;;5044729;28;1764;-73
2023/01/04 12:03:57;;;;;;;;;;;;;;;;;;5073692;28;1458;-71
2023/01/04 12:06:25;;;;;;;;;;;;;;;;;;5052047;28;1487;-72
2023/01/04 12:08:51;;;;;;;;;;;;;;;;;;5056339;28;1146;-72
2023/01/04 12:11:19;;;;;;;;;;;;;;;;;;5070408;28;1407;-71
2023/01/04 12:13:45;;;;;;;;;;;;;;;;;;5051061;28;1673;-73
2023/01/04 12:16:13;;;;;;;;;;;;;;;;;;5053303;28;1913;-72
2023/01/04 12:18:42;;;;;;;;;;;;;;;;;;5073383;28;1515;-72
2023/01/04 12:21:08;;;;;;;;;;;;;;;;;;5073673;28;814;-72
2023/01/04 12:23:35;;;;;;;;;;;;;;;;;;5072776;28;1235;-72
2023/01/04 12:26:01;;;;;;;;;;;;;;;;;;5062867;28;1379;-72
2023/01/04 12:28:34;;;;;;;;;;;;;;;;;;5072935;28;1270;-71
2023/01/04 12:31:19;;;;;;;;;;;;;;;;;;5070762;28;1204;-72
2023/01/04 12:33:46;;;;;;;;;;;;;;;;;;5071065;28;1319;-70
2023/01/04 12:36:13;;;;;;;;;;;;;;;;;;5057610;28;1926;-73
2023/01/04 12:39:02;;;;;;;;;;;;;;;;;;5073107;28;1461;-71
2023/01/04 12:42:00;;;;;;;;;;;;;;;;;;5069587;28;1356;-74
2023/01/04 12:44:45;;;;;;;;;;;;;;;;;;5072347;28;1518;-72
2023/01/04 12:50:25;;;;;;;;;;;;;;;;;;5035049;28;1116;-70
2023/01/04 12:52:51;;;;;;;;;;;;;;;;;;5034503;28;1261;-74
2023/01/04 12:55:44;;;;;;;;;;;;;;;;;;5035052;28;1306;-73
2023/01/04 12:58:25;;;;;;;;;;;;;;;;;;5060234;28;1193;-72
2023/01/04 13:01:10;;;;;;;;;;;;;;;;;;5071630;28;1128;-72
2023/01/04 13:03:43;;;;;;;;;;;;;;;;;;5053844;28;1366;-73
2023/01/04 13:06:12;;;;;;;;;;;;;;;;;;5072488;28;1419;-72
2023/01/04 13:08:39;;;;;;;;;;;;;;;;;;5072218;28;1068;-72
2023/01/04 13:11:05;;;;;;;;;;;;;;;;;;5072193;28;992;-73
2023/01/04 13:13:31;;;;;;;;;;;;;;;;;;5071197;28;1084;-73
2023/01/04 13:16:09;;;;;;;;;;;;;;;;;;5071862;28;1914;-73
2023/01/04 13:18:36;;;;;;;;;;;;;;;;;;5072775;28;1121;-71
2023/01/04 13:21:03;;;;;;;;;;;;;;;;;;5072139;28;1183;-73
2023/01/04 13:23:30;;;;;;;;;;;;;;;;;;5070962;28;1301;-72
2023/01/04 13:25:59;;;;;;;;;;;;;;;;;;5070554;28;1387;-73
2023/01/04 13:28:25;;;;;;;;;;;;;;;;;;5071960;28;944;-72
2023/01/04 13:30:57;;;;;;;;;;;;;;;;;;5072135;28;888;-74
2023/01/04 13:33:23;;;;;;;;;;;;;;;;;;5071264;28;1286;-74
2023/01/04 13:35:57;;;;;;;;;;;;;;;;;;5071963;28;1906;-72
2023/01/04 13:38:23;;;;;;;;;;;;;;;;;;5071078;28;1290;-72
2023/01/04 13:40:51;;;;;;;;;;;;;;;;;;5072156;28;1068;-73
2023/01/04 13:43:33;;;;;;;;;;;;;;;;;;5070911;28;1110;-74
2023/01/04 13:46:01;;;;;;;;;;;;;;;;;;5071473;28;1398;-74
2023/01/04 13:48:28;;;;;;;;;;;;;;;;;;5071838;28;791;-74
2023/01/04 13:50:59;;;;;;;;;;;;;;;;;;5070533;28;1232;-71
2023/01/04 13:53:26;;;;;;;;;;;;;;;;;;5070999;28;1044;-72
2023/01/04 13:55:54;;;;;;;;;;;;;;;;;;5071263;28;1981;-73
2023/01/04 13:58:21;;;;;;;;;;;;;;;;;;5070816;28;1405;-74
2023/01/04 14:00:48;;;;;;;;;;;;;;;;;;5071532;28;1393;-72
2023/01/04 14:03:17;;;;;;;;;;;;;;;;;;5069424;28;1444;-72
2023/01/04 14:05:44;;;;;;;;;;;;;;;;;;5070474;28;1388;-72
2023/01/04 14:08:10;;;;;;;;;;;;;;;;;;5070490;28;1162;-73
2023/01/04 14:10:36;;;;;;;;;;;;;;;;;;5071651;28;1120;-73
2023/01/04 14:13:04;;;;;;;;;;;;;;;;;;5064741;28;1521;-74
2023/01/04 14:15:32;;;;;;;;;;;;;;;;;;5064104;28;1490;-75
2023/01/04 14:17:58;;;;;;;;;;;;;;;;;;5071520;28;1973;-72
2023/01/04 14:20:35;;;;;;;;;;;;;;;;;;5071166;28;1395;-71
2023/01/04 14:23:01;;;;;;;;;;;;;;;;;;5066642;28;1382;-73
2023/01/04 14:25:54;;;;;;;;;;;;;;;;;;5067820;28;1982;-71
2023/01/04 14:28:27;;;;;;;;;;;;;;;;;;5072215;28;1129;-73
2023/01/04 14:30:54;;;;;;;;;;;;;;;;;;5071303;28;920;-73
2023/01/04 14:33:22;;;;;;;;;;;;;;;;;;5047459;28;1957;-72
2023/01/04 14:36:00;;;;;;;;;;;;;;;;;;5071833;28;1509;-72
2023/01/04 14:38:26;;;;;;;;;;;;;;;;;;5053891;28;1986;-72
2023/01/04 14:40:52;;;;;;;;;;;;;;;;;;5055725;28;1067;-71
2023/01/04 14:43:34;;;;;;;;;;;;;;;;;;5054869;28;940;-72
2023/01/04 14:46:00;;;;;;;;;;;;;;;;;;5055733;28;1310;-73
2023/01/04 14:48:28;;;;;;;;;;;;;;;;;;5075586;28;1677;-73
2023/01/04 14:50:54;;;;;;;;;;;;;;;;;;5074347;28;1447;-71
2023/01/04 14:53:20;;;;;;;;;;;;;;;;;;5067837;28;1391;-71
2023/01/04 14:55:46;;;;;;;;;;;;;;;;;;5068225;28;1439;-73
2023/01/04 14:58:12;;;;;;;;;;;;;;;;;;5067875;28;1913;-71
2023/01/04 15:00:40;;;;;;;;;;;;;;;;;;5030664;28;1272;-73
2023/01/04 15:03:08;;;;;;;;;;;;;;;;;;5011587;28;1095;-73
2023/01/04 15:05:34;;;;;;;;;;;;;;;;;;4987923;28;2140;-72
2023/01/04 15:08:01;;;;;;;;;;;;;;;;;;5017370;28;1227;-72
2023/01/04 15:10:28;;;;;;;;;;;;;;;;;;5011452;28;1194;-72
2023/01/04 15:12:56;;;;;;;;;;;;;;;;;;5013282;28;850;-72
2023/01/04 15:15:23;;;;;;;;;;;;;;;;;;5006789;28;1361;-72
2023/01/04 15:17:50;;;;;;;;;;;;;;;;;;5004329;28;1999;-75
2023/01/04 15:20:17;;;;;;;;;;;;;;;;;;5011046;28;1181;-72
2023/01/04 15:22:43;;;;;;;;;;;;;;;;;;5016847;28;1308;-73
2023/01/04 15:25:10;;;;;;;;;;;;;;;;;;5018000;28;1345;-73
2023/01/04 15:27:36;;;;;;;;;;;;;;;;;;5011311;28;862;-72
2023/01/04 15:30:03;;;;;;;;;;;;;;;;;;5011026;28;1006;-72
2023/01/04 15:32:31;;;;;;;;;;;;;;;;;;5010102;28;1163;-72
2023/01/04 15:37:40;;;;;;;;;;;;;;;;;;5135530;22;7037;-72
2023/01/04 15:40:06;;;;;;;;;;;;;;;;;;4998106;28;1338;-73
2023/01/04 15:45:16;;;;;;;;;;;;;;;;;;4992254;28;1042;-72
2023/01/04 15:47:43;;;;;;;;;;;;;;;;;;4991344;28;1433;-72
2023/01/04 15:50:09;;;;;;;;;;;;;;;;;;4990306;28;1282;-72
2023/01/04 15:52:35;;;;;;;;;;;;;;;;;;4984287;28;1687;-74
2023/01/04 15:55:03;;;;;;;;;;;;;;;;;;4992692;28;1159;-71
2023/01/04 15:57:29;;;;;;;;;;;;;;;;;;4992051;28;1910;-73
2023/01/04 15:59:55;;;;;;;;;;;;;;;;;;4991981;28;1329;-71
2023/01/04 16:02:21;;;;;;;;;;;;;;;;;;4992628;28;1121;-71
2023/01/04 16:04:48;;;;;;;;;;;;;;;;;;4990872;28;1385;-70
2023/01/04 16:07:14;;;;;;;;;;;;;;;;;;4992312;28;1407;-72
2023/01/04 16:09:40;;;;;;;;;;;;;;;;;;4993004;28;1129;-71
2023/01/04 16:14:52;;;;;;;;;;;;;;;;;;4991064;28;1709;-70
2023/01/04 16:17:18;;;;;;;;;;;;;;;;;;4991754;28;1915;-71
2023/01/04 16:19:44;;;;;;;;;;;;;;;;;;4990869;28;1481;-71
2023/01/04 16:22:10;;;;;;;;;;;;;;;;;;4990728;28;1436;-71
2023/01/04 16:24:37;;;;;;;;;;;;;;;;;;4988866;28;1356;-71
2023/01/04 16:27:03;;;;;;;;;;;;;;;;;;4991988;28;1472;-71
2023/01/04 16:29:31;;;;;;;;;;;;;;;;;;4986910;28;1460;-71
2023/01/04 16:31:58;;;;;;;;;;;;;;;;;;4992237;28;1103;-72
2023/01/04 16:34:24;;;;;;;;;;;;;;;;;;4990912;28;1381;-72
2023/01/04 16:36:50;;;;;;;;;;;;;;;;;;4991805;28;1927;-72
2023/01/04 16:39:16;;;;;;;;;;;;;;;;;;4989608;28;1449;-72
2023/01/04 16:41:42;;;;;;;;;;;;;;;;;;4992050;28;1098;-72
2023/01/04 16:44:09;;;;;;;;;;;;;;;;;;4990947;28;1336;-72
2023/01/04 16:46:38;;;;;;;;;;;;;;;;;;4990739;28;1862;-74
2023/01/04 16:49:05;;;;;;;;;;;;;;;;;;4989141;28;1595;-74
2023/01/04 16:51:32;;;;;;;;;;;;;;;;;;4984277;28;1204;-73
2023/01/04 16:53:58;;;;;;;;;;;;;;;;;;4991580;28;1381;-74
2023/01/04 16:56:24;;;;;;;;;;;;;;;;;;4987767;28;1330;-71
2023/01/04 16:58:51;;;;;;;;;;;;;;;;;;4991707;28;1914;-73
2023/01/04 17:01:17;;;;;;;;;;;;;;;;;;4991631;28;1164;-74
2023/01/04 17:03:45;;;;;;;;;;;;;;;;;;4991647;28;1168;-74
2023/01/04 17:06:12;;;;;;;;;;;;;;;;;;4991383;28;1402;-73
2023/01/04 17:08:38;;;;;;;;;;;;;;;;;;4991552;28;1168;-74
2023/01/04 17:11:06;;;;;;;;;;;;;;;;;;4988293;28;1805;-74
2023/01/04 17:13:32;;;;;;;;;;;;;;;;;;4983587;28;1110;-74
2023/01/04 17:15:58;;;;;;;;;;;;;;;;;;4991190;28;1487;-72
2023/01/04 17:18:24;;;;;;;;;;;;;;;;;;4991312;28;1911;-71
2023/01/04 17:20:56;;;;;;;;;;;;;;;;;;4990036;28;1189;-73
2023/01/04 17:23:22;;;;;;;;;;;;;;;;;;4991030;28;1117;-72
2023/01/04 17:25:48;;;;;;;;;;;;;;;;;;4989532;28;1478;-72
2023/01/04 17:28:14;;;;;;;;;;;;;;;;;;4990838;28;1173;-72
2023/01/04 17:30:41;;;;;;;;;;;;;;;;;;4990761;28;1234;-72
2023/01/04 17:33:07;;;;;;;;;;;;;;;;;;4990719;28;1359;-73
2023/01/04 17:35:34;;;;;;;;;;;;;;;;;;4989315;28;1397;-73
2023/01/04 17:38:02;;;;;;;;;;;;;;;;;;4988060;28;1981;-73
2023/01/04 17:40:28;;;;;;;;;;;;;;;;;;4990896;28;1141;-73
2023/01/04 17:42:54;;;;;;;;;;;;;;;;;;4991165;28;1161;-74
2023/01/04 17:45:21;;;;;;;;;;;;;;;;;;4990127;28;1382;-75
2023/01/04 17:47:47;;;;;;;;;;;;;;;;;;4990535;28;1370;-74
2023/01/04 17:50:14;;;;;;;;;;;;;;;;;;4988609;28;1168;-72
2023/01/04 17:52:40;;;;;;;;;;;;;;;;;;4990206;28;1489;-73
2023/01/04 17:55:09;;;;;;;;;;;;;;;;;;4987109;28;1476;-74
2023/01/04 17:57:35;;;;;;;;;;;;;;;;;;4990544;28;1906;-74
2023/01/04 18:00:01;;;;;;;;;;;;;;;;;;4990938;28;1121;-75
2023/01/04 18:02:27;;;;;;;;;;;;;;;;;;4990363;28;1140;-73
2023/01/04 18:04:54;;;;;;;;;;;;;;;;;;4990233;28;1247;-74